Time;durP1;ratioP1;P1;durP2;ratioP2;P2;SDS_P1;SDS_P2;PMS_P1;PMS_P2;Temp;Humidity;BMP_temperature;BMP_pressure;BME280_temperature;BME280_humidity;BME280_pressure;Samples;Min_cycle;Max_cycle;Signal;HPM_P1;HPM_P2
2022/05/02 00:00:53;;;;;;;8.18;2.90;;;17.40;88.10;;;;;;5057084;28;20082;-66
2022/05/02 00:03:21;;;;;;;7.38;2.45;;;17.50;87.30;;;;;;5058473;28;20013;-68
2022/05/02 00:05:49;;;;;;;10.57;2.40;;;17.60;87.70;;;;;;5060301;28;20029;-66
2022/05/02 00:08:16;;;;;;;12.32;3.22;;;17.80;88.00;;;;;;5053545;28;20035;-67
2022/05/02 00:10:44;;;;;;;7.03;2.55;;;17.90;85.50;;;;;;5055167;28;20029;-66
2022/05/02 00:13:11;;;;;;;8.00;2.63;;;18.00;85.00;;;;;;5055672;28;20017;-66
2022/05/02 00:15:38;;;;;;;10.82;3.08;;;18.00;84.10;;;;;;5055268;28;20580;-66
2022/05/02 00:18:07;;;;;;;6.75;2.50;;;18.10;84.10;;;;;;5074210;28;20025;-66
2022/05/02 00:20:36;;;;;;;8.77;2.95;;;18.20;86.00;;;;;;5053037;28;20032;-67
2022/05/02 00:23:09;;;;;;;9.07;3.40;;;18.30;84.00;;;;;;5054036;28;20455;-66
2022/05/02 00:25:37;;;;;;;6.18;3.22;;;18.40;84.10;;;;;;5050497;28;20057;-67
2022/05/02 00:28:05;;;;;;;8.18;3.75;;;18.50;87.40;;;;;;5054288;28;20579;-65
2022/05/02 00:30:32;;;;;;;13.40;2.95;;;18.60;86.20;;;;;;5051081;28;20031;-66
2022/05/02 00:33:00;;;;;;;10.57;2.97;;;18.70;82.90;;;;;;5054438;28;20040;-67
2022/05/02 00:35:30;;;;;;;7.78;3.67;;;18.80;85.30;;;;;;5055176;28;20059;-67
2022/05/02 00:37:57;;;;;;;10.65;3.15;;;18.90;84.20;;;;;;5052523;28;20029;-68
2022/05/02 00:40:25;;;;;;;10.40;2.75;;;19.00;84.30;;;;;;5056807;28;20144;-67
2022/05/02 00:42:52;;;;;;;11.25;3.00;;;19.10;80.60;;;;;;5057776;28;20100;-68
2022/05/02 00:45:21;;;;;;;11.23;3.10;;;19.20;82.70;;;;;;5055034;28;20669;-67
2022/05/02 00:47:56;;;;;;;5.53;2.22;;;19.30;79.70;;;;;;5052991;28;20028;-67
2022/05/02 00:50:40;;;;;;;11.90;3.28;;;19.40;83.10;;;;;;5056610;28;20028;-67
2022/05/02 00:53:20;;;;;;;6.55;2.67;;;19.60;82.00;;;;;;5050514;28;20120;-67
2022/05/02 00:55:47;;;;;;;8.02;2.38;;;19.80;83.20;;;;;;5054174;28;20405;-67
2022/05/02 00:58:16;;;;;;;9.68;3.60;;;19.90;80.50;;;;;;5046318;28;20035;-68
2022/05/02 01:00:43;;;;;;;9.90;2.25;;;20.00;81.30;;;;;;5055010;28;20060;-68
2022/05/02 01:03:13;;;;;;;6.13;2.80;;;20.10;78.10;;;;;;5056972;28;20028;-68
2022/05/02 01:08:31;;;;;;;6.00;2.40;;;20.40;79.30;;;;;;5056105;28;20043;-68
2022/05/02 01:10:59;;;;;;;10.63;2.50;;;20.50;75.40;;;;;;5064554;28;20408;-68
2022/05/02 01:13:38;;;;;;;8.30;2.05;;;20.70;77.60;;;;;;5058443;28;20128;-68
2022/05/02 01:16:15;;;;;;;7.38;1.90;;;20.80;77.70;;;;;;5067387;28;20086;-68
2022/05/02 01:18:51;;;;;;;13.05;2.42;;;20.80;75.30;;;;;;5063328;28;20103;-68
2022/05/02 01:21:18;;;;;;;6.47;2.88;;;20.90;75.40;;;;;;5062446;28;20157;-68
2022/05/02 01:23:50;;;;;;;5.50;2.10;;;21.00;73.60;;;;;;5064680;28;20357;-67
2022/05/02 01:26:17;;;;;;;9.50;1.83;;;21.00;75.30;;;;;;5058864;28;20053;-67
2022/05/02 01:28:48;;;;;;;11.07;3.05;;;21.10;73.50;;;;;;5064075;28;20094;-68
2022/05/02 01:31:18;;;;;;;15.10;2.25;;;21.10;73.70;;;;;;5064417;28;20492;-67
2022/05/02 01:33:46;;;;;;;6.78;1.63;;;21.10;76.80;;;;;;5064708;28;20569;-67
2022/05/02 01:36:14;;;;;;;8.13;2.40;;;21.30;75.00;;;;;;5063388;28;20032;-66
2022/05/02 01:38:42;;;;;;;6.63;1.75;;;21.30;74.60;;;;;;5067583;28;20028;-68
2022/05/02 01:41:10;;;;;;;6.80;2.28;;;21.40;74.20;;;;;;5069032;28;20037;-68
2022/05/02 01:43:39;;;;;;;5.22;1.40;;;21.50;71.00;;;;;;5070631;28;20031;-68
2022/05/02 01:46:07;;;;;;;7.22;1.83;;;21.50;71.00;;;;;;5065614;28;20178;-67
2022/05/02 01:48:35;;;;;;;9.13;2.30;;;21.50;72.10;;;;;;5067019;28;20056;-68
2022/05/02 01:51:03;;;;;;;5.68;1.63;;;21.60;74.70;;;;;;5066574;28;20078;-68
2022/05/02 01:53:31;;;;;;;6.70;1.40;;;21.80;72.70;;;;;;5066946;28;20032;-67
2022/05/02 01:55:58;;;;;;;6.25;1.02;;;21.90;71.80;;;;;;5069095;28;20029;-67
2022/05/02 01:58:26;;;;;;;8.00;2.05;;;22.00;71.70;;;;;;5066781;28;20039;-67
2022/05/02 02:00:53;;;;;;;10.57;1.80;;;22.10;69.30;;;;;;5059287;28;20033;-67
2022/05/02 02:03:20;;;;;;;7.45;1.33;;;22.20;71.00;;;;;;5063320;28;20020;-68
2022/05/02 02:05:50;;;;;;;8.32;1.88;;;22.30;69.70;;;;;;5059967;28;20029;-69
2022/05/02 02:08:23;;;;;;;6.40;1.70;;;22.20;67.20;;;;;;5064381;28;20024;-67
2022/05/02 02:10:53;;;;;;;5.38;1.45;;;22.20;69.80;;;;;;5067963;28;20029;-67
2022/05/02 02:13:21;;;;;;;10.32;1.80;;;22.40;69.40;;;;;;5066775;28;20036;-69
2022/05/02 02:15:48;;;;;;;7.13;1.40;;;22.50;69.10;;;;;;5066124;28;20557;-68
2022/05/02 02:18:16;;;;;;;6.63;1.23;;;22.70;67.10;;;;;;5079915;28;20028;-68
2022/05/02 02:20:46;;;;;;;6.43;1.70;;;22.80;67.50;;;;;;5065062;28;20031;-68
2022/05/02 02:23:17;;;;;;;9.18;1.35;;;23.00;67.90;;;;;;5064355;28;20013;-67
2022/05/02 02:25:44;;;;;;;6.05;1.33;;;23.10;66.30;;;;;;5065827;28;20025;-67
2022/05/02 02:28:14;;;;;;;7.95;1.77;;;23.40;67.10;;;;;;5065266;28;20029;-68
2022/05/02 02:30:42;;;;;;;5.93;1.23;;;23.50;65.20;;;;;;5064692;28;20033;-67
2022/05/02 02:33:09;;;;;;;8.15;1.42;;;23.60;64.50;;;;;;5065393;28;20033;-68
2022/05/02 02:35:36;;;;;;;8.82;1.83;;;23.70;65.60;;;;;;5067066;28;20090;-68
2022/05/02 02:38:04;;;;;;;10.98;1.25;;;23.80;64.90;;;;;;5066799;28;20031;-68
2022/05/02 02:40:32;;;;;;;6.13;1.65;;;23.80;64.80;;;;;;5070875;28;20024;-69
2022/05/02 02:42:59;;;;;;;6.57;1.33;;;23.70;63.30;;;;;;5059462;28;20017;-68
2022/05/02 02:45:26;;;;;;;8.93;1.27;;;23.70;63.80;;;;;;5068588;28;20100;-68
2022/05/02 02:47:53;;;;;;;8.60;1.50;;;23.70;65.30;;;;;;5069757;28;20016;-68
2022/05/02 02:50:21;;;;;;;4.97;1.15;;;23.70;65.00;;;;;;5068187;28;20032;-68
2022/05/02 02:52:48;;;;;;;5.93;1.35;;;23.70;65.60;;;;;;5069224;28;20037;-67
2022/05/02 02:55:15;;;;;;;4.65;1.20;;;23.60;63.70;;;;;;5066825;28;20406;-66
2022/05/02 02:57:42;;;;;;;9.35;1.15;;;23.70;64.70;;;;;;5070126;28;20032;-69
2022/05/02 03:00:10;;;;;;;8.07;1.20;;;23.70;64.00;;;;;;5067624;28;20040;-68
2022/05/02 03:02:39;;;;;;;9.95;1.27;;;23.80;64.30;;;;;;5070873;28;20029;-68
2022/05/02 03:07:52;;;;;;;11.35;2.75;;;23.70;62.60;;;;;;5069915;28;20039;-68
2022/05/02 03:10:20;;;;;;;9.98;1.33;;;23.70;62.50;;;;;;5061178;28;20035;-68
2022/05/02 03:12:47;;;;;;;5.97;1.23;;;23.70;63.40;;;;;;5062763;28;20160;-68
2022/05/02 03:15:14;;;;;;;8.93;1.30;;;23.70;63.10;;;;;;5066840;28;20037;-68
2022/05/02 03:17:41;;;;;;;5.35;1.05;;;23.50;63.80;;;;;;5067993;28;20020;-69
2022/05/02 03:20:09;;;;;;;9.73;1.20;;;23.50;63.40;;;;;;5061164;28;20048;-68
2022/05/02 03:22:36;;;;;;;4.60;1.00;;;23.60;62.40;;;;;;5066780;28;20606;-68
2022/05/02 03:25:04;;;;;;;5.35;0.95;;;23.70;65.10;;;;;;5051843;28;20232;-67
2022/05/02 03:27:31;;;;;;;4.32;1.50;;;23.50;61.60;;;;;;5067248;28;20020;-67
2022/05/02 03:29:58;;;;;;;4.93;1.00;;;23.40;62.40;;;;;;5064551;28;20025;-67
2022/05/02 03:32:26;;;;;;;7.32;1.60;;;23.30;62.50;;;;;;5061118;28;20488;-68
2022/05/02 03:34:53;;;;;;;11.35;1.35;;;23.40;63.10;;;;;;5065101;28;20031;-68
2022/05/02 03:37:21;;;;;;;7.75;1.30;;;23.30;62.40;;;;;;5068685;28;20040;-67
2022/05/02 03:39:49;;;;;;;13.50;2.17;;;23.30;63.40;;;;;;5065730;28;20111;-68
2022/05/02 03:42:16;;;;;;;4.15;1.10;;;23.30;63.40;;;;;;5059865;28;20465;-69
2022/05/02 03:44:43;;;;;;;6.80;1.10;;;23.40;62.90;;;;;;5070491;28;20032;-68
2022/05/02 03:47:10;;;;;;;9.48;1.50;;;23.40;63.00;;;;;;5062140;28;20021;-68
2022/05/02 03:49:38;;;;;;;6.45;1.30;;;23.40;64.00;;;;;;5058989;28;20024;-68
2022/05/02 03:52:06;;;;;;;7.40;1.15;;;23.50;63.10;;;;;;5060838;28;20020;-68
2022/05/02 03:54:33;;;;;;;7.35;1.50;;;23.60;63.10;;;;;;5068374;28;21049;-68
2022/05/02 03:57:00;;;;;;;9.50;1.30;;;23.60;61.80;;;;;;5060882;28;20013;-68
2022/05/02 03:59:27;;;;;;;6.60;1.75;;;23.60;63.20;;;;;;5055126;28;20124;-68
2022/05/02 04:01:55;;;;;;;7.85;1.58;;;23.60;63.90;;;;;;5065014;28;20020;-68
2022/05/02 04:04:22;;;;;;;9.02;2.22;;;23.60;64.20;;;;;;5067309;28;20055;-68
2022/05/02 04:06:49;;;;;;;4.22;1.20;;;23.80;64.40;;;;;;5067858;28;20473;-68
2022/05/02 04:09:16;;;;;;;4.65;1.00;;;23.80;62.50;;;;;;5068149;28;20060;-67
2022/05/02 04:11:43;;;;;;;3.42;1.08;;;23.80;62.60;;;;;;5070023;28;20373;-70
2022/05/02 04:14:11;;;;;;;6.03;1.17;;;23.90;63.40;;;;;;5069608;28;20024;-70
2022/05/02 04:16:38;;;;;;;12.02;1.40;;;23.90;61.60;;;;;;5069419;28;20027;-72
2022/05/02 04:19:05;;;;;;;6.93;1.25;;;24.00;61.70;;;;;;5066961;28;20090;-66
2022/05/02 04:21:33;;;;;;;9.38;1.15;;;24.10;63.10;;;;;;5051875;28;20087;-67
2022/05/02 04:24:00;;;;;;;3.58;1.23;;;24.30;60.50;;;;;;5065607;28;20020;-66
2022/05/02 04:26:28;;;;;;;4.97;1.10;;;24.30;62.10;;;;;;5068914;28;20036;-66
2022/05/02 04:28:55;;;;;;;3.28;0.85;;;24.40;60.60;;;;;;5057701;28;20028;-67
2022/05/02 04:31:23;;;;;;;6.38;1.55;;;24.30;61.70;;;;;;5059611;28;20050;-66
2022/05/02 04:33:50;;;;;;;4.95;1.02;;;24.30;61.20;;;;;;5062043;28;20041;-67
2022/05/02 04:36:17;;;;;;;8.43;1.23;;;24.10;60.00;;;;;;5061815;28;20036;-67
2022/05/02 04:38:44;;;;;;;5.38;1.05;;;24.10;60.80;;;;;;5062257;28;20435;-66
2022/05/02 04:41:14;;;;;;;7.70;1.20;;;24.10;63.00;;;;;;5067096;28;20079;-66
2022/05/02 04:43:42;;;;;;;7.32;1.13;;;24.10;61.50;;;;;;5064832;28;20695;-67
2022/05/02 04:46:09;;;;;;;7.00;1.23;;;24.10;61.40;;;;;;5062414;28;20112;-67
2022/05/02 04:48:37;;;;;;;7.35;1.90;;;24.10;61.90;;;;;;5066937;28;20029;-66
2022/05/02 04:51:04;;;;;;;4.32;0.90;;;24.10;62.00;;;;;;5065651;28;20025;-66
2022/05/02 04:53:31;;;;;;;3.65;0.98;;;24.10;61.70;;;;;;5065534;28;20024;-67
2022/05/02 04:55:58;;;;;;;4.82;0.85;;;24.10;62.40;;;;;;5083495;28;20024;-66
2022/05/02 04:58:26;;;;;;;6.72;1.17;;;24.10;62.40;;;;;;5069047;28;20024;-66
2022/05/02 05:00:53;;;;;;;6.07;1.55;;;24.10;62.60;;;;;;5064217;28;20107;-67
2022/05/02 05:03:22;;;;;;;4.10;1.50;;;24.10;61.90;;;;;;5062527;28;20028;-67
2022/05/02 05:05:49;;;;;;;6.30;2.45;;;24.00;62.40;;;;;;5067780;28;20024;-67
2022/05/02 05:08:17;;;;;;;7.03;1.92;;;23.80;63.20;;;;;;5064525;28;20032;-67
2022/05/02 05:11:18;;;;;;;6.63;1.02;;;23.60;63.70;;;;;;5073197;28;20023;-65
2022/05/02 05:17:26;;;;;;;4.82;1.05;;;23.20;64.70;;;;;;5060773;28;20059;-66
2022/05/02 05:20:06;;;;;;;8.23;1.23;;;23.10;63.20;;;;;;5051499;28;20444;-67
2022/05/02 05:22:36;;;;;;;8.13;1.50;;;23.00;63.80;;;;;;5072620;28;20044;-66
2022/05/02 05:25:13;;;;;;;4.07;1.40;;;23.00;64.80;;;;;;5070761;28;20106;-65
2022/05/02 05:27:57;;;;;;;6.45;1.67;;;22.90;65.30;;;;;;5069334;28;20166;-66
2022/05/02 05:30:29;;;;;;;7.07;1.63;;;22.90;65.00;;;;;;5058854;28;20034;-66
2022/05/02 05:33:15;;;;;;;7.47;1.33;;;22.80;65.00;;;;;;5066706;28;20179;-65
2022/05/02 05:36:11;;;;;;;5.50;2.00;;;22.70;65.20;;;;;;5068449;28;20048;-66
2022/05/02 05:38:51;;;;;;;6.93;1.17;;;22.50;65.70;;;;;;5059075;28;20020;-67
2022/05/02 05:41:36;;;;;;;5.63;1.30;;;22.50;65.80;;;;;;5072179;28;20358;-67
2022/05/02 05:44:47;;;;;;;8.93;2.30;;;22.30;66.40;;;;;;5071924;28;20033;-67
2022/05/02 05:47:36;;;;;;;5.72;1.52;;;22.30;66.90;;;;;;5057858;28;20489;-66
2022/05/02 05:50:18;;;;;;;8.60;1.10;;;22.20;67.10;;;;;;5071853;28;20658;-66
2022/05/02 05:53:22;;;;;;;4.47;1.23;;;22.10;66.80;;;;;;5070305;28;20507;-66
2022/05/02 05:56:08;;;;;;;5.80;1.48;;;22.20;67.70;;;;;;5068415;28;20145;-65
2022/05/02 05:58:47;;;;;;;3.53;1.33;;;22.20;68.00;;;;;;5072055;28;20028;-65
2022/05/02 06:01:34;;;;;;;6.82;2.00;;;22.20;67.20;;;;;;5071893;28;20107;-64
2022/05/02 06:04:09;;;;;;;3.25;1.67;;;22.20;68.20;;;;;;5067649;28;20020;-65
2022/05/02 06:06:37;;;;;;;4.60;1.00;;;22.20;68.60;;;;;;5084880;28;20404;-65
2022/05/02 06:09:06;;;;;;;6.18;1.30;;;22.20;68.50;;;;;;5068439;28;20051;-65
2022/05/02 06:11:39;;;;;;;9.45;1.80;;;22.30;68.50;;;;;;5069360;28;20240;-65
2022/05/02 06:14:07;;;;;;;8.93;1.25;;;22.30;68.50;;;;;;5066952;28;20028;-65
2022/05/02 06:19:27;;;;;;;5.15;1.35;;;22.20;68.70;;;;;;5068617;28;20122;-65
2022/05/02 06:21:55;;;;;;;5.50;1.80;;;22.20;68.70;;;;;;5066634;28;20021;-65
2022/05/02 06:24:35;;;;;;;6.78;1.23;;;22.10;69.10;;;;;;5070637;28;21831;-65
2022/05/02 06:27:04;;;;;;;6.28;1.58;;;22.00;68.90;;;;;;5070017;28;20124;-65
2022/05/02 06:29:35;;;;;;;5.32;1.45;;;21.90;69.40;;;;;;5065395;28;20472;-65
2022/05/02 06:32:09;;;;;;;3.83;1.30;;;21.80;69.70;;;;;;5071033;28;20573;-65
2022/05/02 06:34:36;;;;;;;5.82;1.08;;;21.70;70.00;;;;;;5071453;28;20044;-65
2022/05/02 06:37:18;;;;;;;6.72;1.50;;;21.60;70.50;;;;;;5062577;28;20631;-65
2022/05/02 06:40:34;;;;;;;10.80;1.65;;;21.40;71.40;;;;;;5067058;28;20669;-65
2022/05/02 06:43:16;;;;;;;;;;;21.30;72.10;;;;;;5056002;28;20036;-65
2022/05/02 06:45:43;;;;;;;7.80;1.98;;;21.10;73.10;;;;;;5071413;28;19904;-65
2022/05/02 06:48:35;;;;;;;9.98;1.55;;;21.00;73.70;;;;;;5069921;28;20056;-65
2022/05/02 06:51:36;;;;;;;5.13;1.60;;;20.90;74.30;;;;;;5066727;28;20020;-65
2022/05/02 06:54:37;;;;;;;9.88;2.35;;;20.70;74.90;;;;;;5067197;28;20072;-65
2022/05/02 06:57:37;;;;;;;10.55;2.28;;;20.60;75.60;;;;;;5059951;28;20038;-65
2022/05/02 07:00:06;;;;;;;11.45;2.50;;;20.40;76.10;;;;;;5040777;28;20658;-65
2022/05/02 07:02:54;;;;;;;5.70;1.63;;;20.30;76.70;;;;;;5068493;28;20036;-65
2022/05/02 07:05:38;;;;;;;5.35;1.95;;;20.10;77.40;;;;;;5067231;28;20067;-65
2022/05/02 07:08:07;;;;;;;6.63;2.15;;;20.00;78.00;;;;;;5064419;28;20537;-64
2022/05/02 07:10:36;;;;;;;8.27;1.98;;;19.90;78.80;;;;;;5058010;28;20702;-64
2022/05/02 07:13:13;;;;;;;6.97;1.52;;;19.80;79.40;;;;;;5060196;28;20021;-65
2022/05/02 07:15:56;;;;;;;6.80;1.90;;;19.70;80.00;;;;;;5060582;28;20063;-65
2022/05/02 07:18:35;;;;;;;8.80;3.03;;;19.60;80.60;;;;;;5062226;28;20017;-63
2022/05/02 07:21:20;;;;;;;7.10;1.40;;;19.50;80.80;;;;;;5061648;28;20028;-64
2022/05/02 07:23:50;;;;;;;8.13;1.90;;;19.40;81.80;;;;;;5060247;28;20031;-64
2022/05/02 07:26:20;;;;;;;7.75;1.73;;;19.30;82.10;;;;;;5059203;28;20118;-65
2022/05/02 07:28:49;;;;;;;6.43;2.33;;;19.10;82.80;;;;;;5059507;28;20040;-65
2022/05/02 07:31:23;;;;;;;13.30;2.92;;;19.00;83.50;;;;;;5059279;28;20482;-64
2022/05/02 07:33:52;;;;;;;11.20;1.88;;;18.90;84.10;;;;;;5059927;28;20428;-65
2022/05/02 07:36:25;;;;;;;9.70;2.50;;;18.70;84.40;;;;;;5058786;28;20400;-64
2022/05/02 07:39:16;;;;;;;6.80;2.13;;;18.60;85.10;;;;;;5058086;28;20039;-65
2022/05/02 07:41:45;;;;;;;5.78;3.17;;;18.50;86.10;;;;;;5061109;28;20377;-63
2022/05/02 07:44:13;;;;;;;13.68;3.97;;;18.40;86.30;;;;;;5060218;28;20040;-63
2022/05/02 07:46:43;;;;;;;11.73;2.80;;;18.30;86.80;;;;;;5056927;28;20021;-64
2022/05/02 07:49:14;;;;;;;10.05;2.90;;;18.30;87.30;;;;;;5061706;28;20024;-64
2022/05/02 07:51:52;;;;;;;7.80;2.70;;;18.20;87.10;;;;;;5056771;28;20457;-64
2022/05/02 07:54:28;;;;;;;16.20;2.97;;;18.20;87.20;;;;;;5061655;28;20090;-62
2022/05/02 07:57:00;;;;;;;5.07;2.38;;;18.20;86.90;;;;;;5061841;28;20035;-62
2022/05/02 07:59:39;;;;;;;9.15;2.70;;;18.20;87.00;;;;;;5058195;28;20024;-63
2022/05/02 08:02:08;;;;;;;7.65;2.75;;;18.00;87.90;;;;;;5058409;28;20079;-63
2022/05/02 08:04:37;;;;;;;6.00;2.65;;;18.00;88.10;;;;;;5066984;28;20031;-63
2022/05/02 08:07:19;;;;;;;8.40;2.75;;;17.90;88.50;;;;;;5066536;28;20021;-63
2022/05/02 08:09:57;;;;;;;13.95;3.20;;;17.90;87.90;;;;;;5060405;28;20033;-63
2022/05/02 08:12:29;;;;;;;14.10;3.75;;;17.90;88.50;;;;;;5059852;28;20484;-63
2022/05/02 08:15:08;;;;;;;8.52;3.33;;;17.80;88.50;;;;;;5062129;28;20044;-63
2022/05/02 08:17:48;;;;;;;8.32;3.72;;;17.70;89.30;;;;;;5060011;28;20033;-62
2022/05/02 08:20:45;;;;;;;9.70;3.50;;;17.60;90.00;;;;;;5062029;28;20025;-63
2022/05/02 08:29:34;;;;;;;12.52;5.22;;;17.40;90.50;;;;;;5045967;28;20736;-62
2022/05/02 08:32:17;;;;;;;12.40;4.47;;;17.30;90.70;;;;;;5061716;28;20032;-63
2022/05/02 08:35:02;;;;;;;11.80;4.13;;;17.20;90.80;;;;;;5063191;28;20467;-62
2022/05/02 08:37:35;;;;;;;8.55;3.97;;;17.20;91.00;;;;;;5057543;28;20035;-63
2022/05/02 08:40:05;;;;;;;11.95;3.88;;;17.00;91.20;;;;;;5058072;28;20024;-63
2022/05/02 08:42:44;;;;;;;8.85;3.75;;;17.00;91.80;;;;;;5053458;28;20621;-63
2022/05/02 08:45:39;;;;;;;15.80;4.28;;;17.00;91.80;;;;;;5055627;28;20050;-62
2022/05/02 08:48:45;;;;;;;10.82;3.92;;;17.00;92.10;;;;;;5064951;28;20119;-63
2022/05/02 08:51:38;;;;;;;12.50;4.10;;;16.90;91.90;;;;;;5061985;28;20033;-65
2022/05/02 08:54:32;;;;;;;11.82;3.50;;;16.90;92.20;;;;;;5031242;28;20048;-65
2022/05/02 08:57:11;;;;;;;8.27;3.63;;;16.90;92.00;;;;;;5057618;28;20051;-63
2022/05/02 08:59:53;;;;;;;12.60;5.80;;;16.80;92.00;;;;;;5066955;28;20017;-64
2022/05/02 09:03:08;;;;;;;13.15;4.60;;;16.80;92.10;;;;;;5054423;28;20656;-63
2022/05/02 09:06:11;;;;;;;12.52;3.83;;;16.80;92.20;;;;;;5043641;28;20036;-64
2022/05/02 09:09:15;;;;;;;13.02;3.88;;;16.70;92.10;;;;;;5066134;28;20107;-64
2022/05/02 09:12:00;;;;;;;12.45;4.10;;;16.60;92.20;;;;;;5068190;28;20024;-63
2022/05/02 09:15:03;;;;;;;9.77;3.25;;;16.60;92.30;;;;;;5057258;28;20468;-63
2022/05/02 09:18:03;;;;;;;10.20;3.80;;;16.50;92.30;;;;;;5061497;28;20150;-64
2022/05/02 09:20:50;;;;;;;10.80;3.50;;;16.50;92.50;;;;;;5065844;28;20044;-64
2022/05/02 09:23:30;;;;;;;13.95;3.55;;;16.50;92.80;;;;;;5063001;28;20094;-63
2022/05/02 09:26:08;;;;;;;11.63;4.20;;;16.40;92.90;;;;;;5066013;28;20024;-63
2022/05/02 09:28:53;;;;;;;9.13;3.78;;;16.30;92.60;;;;;;5066391;28;20032;-63
2022/05/02 09:31:51;;;;;;;10.80;3.67;;;16.30;93.10;;;;;;5061024;28;20044;-62
2022/05/02 09:34:34;;;;;;;16.50;7.22;;;16.20;92.90;;;;;;5051377;28;20033;-63
2022/05/02 09:37:14;;;;;;;9.48;4.95;;;16.20;92.80;;;;;;5060593;28;20470;-63
2022/05/02 09:39:48;;;;;;;8.63;3.22;;;16.10;92.70;;;;;;5052519;28;20033;-63
2022/05/02 09:42:43;;;;;;;14.18;4.28;;;16.00;92.90;;;;;;5058453;28;20029;-62
2022/05/02 09:51:37;;;;;;;12.98;2.70;;;15.60;92.50;;;;;;5066273;28;20112;-61
2022/05/02 09:54:15;;;;;;;9.25;3.05;;;15.60;93.00;;;;;;5059402;28;20035;-61
2022/05/02 09:56:50;;;;;;;7.75;2.22;;;15.40;92.90;;;;;;5062094;28;20067;-65
2022/05/02 09:59:25;;;;;;;13.50;2.92;;;15.30;93.00;;;;;;5067627;28;20028;-59
2022/05/02 10:01:59;;;;;;;;;;;15.20;93.30;;;;;;5063278;28;20032;-61
2022/05/02 10:04:40;;;;;;;12.70;3.58;;;15.20;93.40;;;;;;5060144;28;19959;-59
2022/05/02 10:07:09;;;;;;;16.02;3.65;;;15.10;93.60;;;;;;5065001;28;20029;-60
2022/05/02 10:10:21;;;;;;;8.52;2.83;;;15.00;93.80;;;;;;5059336;28;20067;-59
2022/05/02 10:13:14;;;;;;;13.98;3.47;;;15.00;94.40;;;;;;5001319;28;20065;-59
2022/05/02 10:16:18;;;;;;;15.73;3.38;;;15.00;94.00;;;;;;5000220;28;20054;-59
2022/05/02 10:18:52;;;;;;;10.88;2.72;;;14.90;94.10;;;;;;5056708;28;20076;-59
2022/05/02 10:21:47;;;;;;;13.73;3.33;;;14.90;94.30;;;;;;5063158;28;20036;-59
2022/05/02 10:24:52;;;;;;;13.32;4.22;;;14.80;94.00;;;;;;5054031;28;20032;-60
2022/05/02 10:27:36;;;;;;;6.78;3.03;;;14.80;94.10;;;;;;5061390;28;20087;-59
2022/05/02 10:30:12;;;;;;;17.08;3.45;;;14.70;94.50;;;;;;5066287;28;20154;-59
2022/05/02 10:32:58;;;;;;;15.18;4.22;;;14.60;94.30;;;;;;5058914;28;20048;-59
2022/05/02 10:35:27;;;;;;;13.20;3.97;;;14.70;94.70;;;;;;5074912;28;20039;-59
2022/05/02 10:37:57;;;;;;;9.82;4.57;;;14.60;94.60;;;;;;5083726;28;20109;-59
2022/05/02 10:40:50;;;;;;;11.60;4.95;;;14.60;94.80;;;;;;5069107;28;20381;-59
2022/05/02 10:43:26;;;;;;;13.18;3.70;;;14.50;94.60;;;;;;5066280;28;20032;-60
2022/05/02 10:45:54;;;;;;;11.50;4.38;;;14.50;94.80;;;;;;5066812;28;20028;-59
2022/05/02 10:48:40;;;;;;;8.27;4.75;;;14.40;94.90;;;;;;5062997;28;20077;-59
2022/05/02 10:51:19;;;;;;;11.55;4.95;;;14.40;94.80;;;;;;5065942;28;20024;-59
2022/05/02 10:53:58;;;;;;;12.57;4.82;;;14.40;94.90;;;;;;5060806;28;20436;-58
2022/05/02 10:56:40;;;;;;;14.68;5.60;;;14.40;95.10;;;;;;5059696;28;20534;-59
2022/05/02 10:59:15;;;;;;;11.75;4.70;;;14.30;95.30;;;;;;5058529;28;20024;-59
2022/05/02 11:02:00;;;;;;;9.98;4.43;;;14.30;95.20;;;;;;5060993;28;20511;-59
2022/05/02 11:04:42;;;;;;;13.40;5.38;;;14.30;95.40;;;;;;5063456;28;20036;-59
2022/05/02 11:07:35;;;;;;;13.27;5.68;;;14.30;95.30;;;;;;5057589;28;20083;-59
2022/05/02 11:10:09;;;;;;;14.35;4.78;;;14.30;95.40;;;;;;5067494;28;20021;-59
2022/05/02 11:12:49;;;;;;;17.02;5.07;;;14.30;95.50;;;;;;5059989;28;20039;-59
2022/05/02 11:15:44;;;;;;;15.80;5.65;;;14.30;95.50;;;;;;5058635;28;20048;-60
2022/05/02 11:20:41;;;;;;;18.65;6.75;;;14.30;95.60;;;;;;5059457;28;20067;-60
2022/05/02 11:21:13;;;;;;;16.52;5.90;;;14.20;95.40;;;;;;5057073;28;20405;-59
2022/05/02 11:23:49;;;;;;;13.63;5.90;;;14.20;95.60;;;;;;5059721;28;20032;-58
2022/05/02 11:26:44;;;;;;;19.05;5.72;;;14.20;95.70;;;;;;5060496;28;20567;-60
2022/05/02 11:29:39;;;;;;;16.80;5.65;;;14.10;95.70;;;;;;5058224;28;20028;-59
2022/05/02 11:32:21;;;;;;;19.75;6.10;;;14.20;95.70;;;;;;5059280;28;20048;-59
2022/05/02 11:35:04;;;;;;;17.30;7.25;;;14.10;95.70;;;;;;5053053;28;20147;-59
2022/05/02 11:37:57;;;;;;;12.25;6.28;;;14.00;95.60;;;;;;5055190;28;20027;-59
2022/05/02 11:40:36;;;;;;;12.32;5.88;;;14.10;95.90;;;;;;5033072;28;20034;-59
2022/05/02 11:43:11;;;;;;;10.65;5.25;;;14.00;95.90;;;;;;5059122;28;20025;-58
2022/05/02 11:46:09;;;;;;;12.88;5.25;;;14.00;95.80;;;;;;5061223;28;21511;-59
2022/05/02 11:49:12;;;;;;;15.50;6.28;;;14.00;95.80;;;;;;5060960;28;20036;-59
2022/05/02 11:51:45;;;;;;;12.35;5.70;;;13.90;95.70;;;;;;5007814;28;20117;-61
2022/05/02 11:54:23;;;;;;;11.23;5.53;;;13.90;95.90;;;;;;5053301;28;20063;-61
2022/05/02 11:56:59;;;;;;;21.08;7.15;;;13.90;95.80;;;;;;5063570;28;20033;-61
2022/05/02 11:59:44;;;;;;;13.25;6.03;;;13.80;95.60;;;;;;5061205;28;20047;-61
2022/05/02 12:02:41;;;;;;;19.38;7.07;;;13.80;96.00;;;;;;5055646;28;20023;-60
2022/05/02 12:05:17;;;;;;;18.33;9.52;;;13.80;95.90;;;;;;5044747;28;20536;-61
2022/05/02 12:07:51;;;;;;;14.75;8.90;;;13.80;96.30;;;;;;5060968;28;20093;-61
2022/05/02 12:10:21;;;;;;;14.95;8.60;;;13.80;96.40;;;;;;5059864;28;20630;-60
2022/05/02 12:12:50;;;;;;;17.27;7.97;;;13.80;96.40;;;;;;5060215;28;20489;-61
2022/05/02 12:15:19;;;;;;;17.10;7.60;;;13.80;96.30;;;;;;5063212;28;20546;-60
2022/05/02 12:18:04;;;;;;;16.20;7.78;;;13.80;96.30;;;;;;5059457;28;21004;-61
2022/05/02 12:20:41;;;;;;;17.42;7.72;;;13.80;96.30;;;;;;5051565;28;20068;-60
2022/05/02 12:23:20;;;;;;;19.67;7.65;;;13.80;96.60;;;;;;5064407;28;20028;-60
2022/05/02 12:25:49;;;;;;;18.60;6.95;;;13.70;96.40;;;;;;5060977;28;20025;-60
2022/05/02 12:28:37;;;;;;;20.95;8.27;;;13.60;95.90;;;;;;5073366;28;20028;-61
2022/05/02 12:31:07;;;;;;;16.95;7.13;;;13.60;96.10;;;;;;5056152;28;20385;-60
2022/05/02 12:33:43;;;;;;;19.98;7.40;;;13.50;96.00;;;;;;5059272;28;20462;-60
2022/05/02 12:36:19;;;;;;;19.17;8.30;;;13.50;96.10;;;;;;5059898;28;20454;-61
2022/05/02 12:39:10;;;;;;;19.50;8.18;;;13.50;96.50;;;;;;5051961;28;20033;-62
2022/05/02 12:42:13;;;;;;;18.55;7.35;;;13.60;96.80;;;;;;5059477;28;20016;-61
2022/05/02 12:44:52;;;;;;;18.20;8.07;;;13.60;96.40;;;;;;5058188;28;20028;-61
2022/05/02 12:47:28;;;;;;;21.67;7.30;;;13.50;96.40;;;;;;5059069;28;20031;-59
2022/05/02 12:50:17;;;;;;;13.75;7.43;;;13.50;96.40;;;;;;5058351;28;20031;-59
2022/05/02 12:52:56;;;;;;;18.45;8.02;;;13.50;96.40;;;;;;5064077;28;20059;-59
2022/05/02 12:55:30;;;;;;;16.52;7.45;;;13.40;96.40;;;;;;5055349;28;20041;-59
2022/05/02 13:00:52;;;;;;;17.90;8.35;;;13.50;97.00;;;;;;5063630;28;20129;-58
2022/05/02 13:03:27;;;;;;;14.13;7.88;;;13.50;96.70;;;;;;5061830;28;20017;-59
2022/05/02 13:06:05;;;;;;;22.20;8.82;;;13.40;96.50;;;;;;5061337;28;20029;-60
2022/05/02 13:08:41;;;;;;;23.38;9.63;;;13.50;96.90;;;;;;5060166;28;20021;-59
2022/05/02 13:11:13;;;;;;;20.35;11.63;;;13.60;97.50;;;;;;5061836;28;20047;-59
2022/05/02 13:13:47;;;;;;;27.13;12.45;;;13.80;98.00;;;;;;5064831;28;20028;-58
2022/05/02 13:16:28;;;;;;;20.35;11.52;;;14.00;98.30;;;;;;5054889;28;20037;-58
2022/05/02 13:18:58;;;;;;;20.17;11.05;;;14.10;98.30;;;;;;5057196;28;20055;-59
2022/05/02 13:21:26;;;;;;;20.60;10.75;;;14.30;98.20;;;;;;5063754;28;20063;-58
2022/05/02 13:24:17;;;;;;;14.63;9.43;;;14.30;98.10;;;;;;5058698;28;20025;-58
2022/05/02 13:27:03;;;;;;;22.00;9.60;;;14.30;97.90;;;;;;5066831;28;20031;-58
2022/05/02 13:29:48;;;;;;;18.50;8.20;;;14.40;97.90;;;;;;5063092;28;20436;-58
2022/05/02 13:32:25;;;;;;;14.02;8.10;;;14.50;97.90;;;;;;5061007;28;20028;-57
2022/05/02 13:35:02;;;;;;;16.50;9.55;;;14.50;97.90;;;;;;5068687;28;20493;-58
2022/05/02 13:37:40;;;;;;;18.48;8.63;;;14.60;98.00;;;;;;5064142;28;20052;-59
2022/05/02 13:40:09;;;;;;;16.17;8.77;;;14.70;98.10;;;;;;5070568;28;20104;-58
2022/05/02 13:42:55;;;;;;;16.13;7.75;;;14.70;97.90;;;;;;5067338;28;20039;-59
2022/05/02 13:45:44;;;;;;;18.65;8.30;;;14.70;97.70;;;;;;5064466;28;20036;-58
2022/05/02 13:48:20;;;;;;;15.30;8.65;;;14.70;97.70;;;;;;5064075;28;20023;-59
2022/05/02 13:51:06;;;;;;;21.38;7.72;;;14.80;97.80;;;;;;5058266;28;20354;-59
2022/05/02 13:53:42;;;;;;;19.40;9.60;;;14.80;97.70;;;;;;5057631;28;20028;-60
2022/05/02 13:56:31;;;;;;;18.55;7.57;;;14.90;97.60;;;;;;5065571;28;20048;-59